createdAt,value
2022-09-01T00:01:54.693Z,14.00
2022-09-01T00:04:26.015Z,14.10
2022-09-01T00:06:54.676Z,14.10
2022-09-01T00:09:24.080Z,14.10
2022-09-01T00:11:55.316Z,14.10
2022-09-01T00:14:30.598Z,14.00
2022-09-01T00:17:01.792Z,14.00
2022-09-01T00:19:40.980Z,14.00
2022-09-01T00:30:14.571Z,13.90
2022-09-01T00:32:41.897Z,13.90
2022-09-01T00:39:19.122Z,13.90
2022-09-01T00:41:46.428Z,13.80
2022-09-01T00:44:18.733Z,13.80
2022-09-01T00:46:51.078Z,13.80
2022-09-01T00:49:47.999Z,13.80
2022-09-01T00:52:41.131Z,13.80
2022-09-01T00:55:25.454Z,13.80
2022-09-01T00:57:53.101Z,13.80
2022-09-01T01:00:26.618Z,13.70
2022-09-01T01:02:54.712Z,13.70
2022-09-01T01:05:36.318Z,13.70
2022-09-01T01:12:13.425Z,13.80
2022-09-01T01:14:40.844Z,13.60
2022-09-01T01:17:08.356Z,13.60
2022-09-01T01:19:46.448Z,13.70
2022-09-01T01:22:27.587Z,13.60
2022-09-01T01:29:04.688Z,13.60
2022-09-01T01:31:32.036Z,13.70
2022-09-01T01:33:59.166Z,13.60
2022-09-01T01:36:34.146Z,13.60
2022-09-01T01:39:11.860Z,13.60
2022-09-01T01:45:52.626Z,13.70
2022-09-01T01:48:22.609Z,13.70
2022-09-01T01:50:55.122Z,13.60
2022-09-01T01:53:22.946Z,13.60
2022-09-01T01:55:50.721Z,13.70
2022-09-01T01:58:21.243Z,13.70
2022-09-01T02:00:52.692Z,13.60
2022-09-01T02:03:26.009Z,13.60
2022-09-01T02:10:03.055Z,13.60
2022-09-01T02:12:30.225Z,13.60
2022-09-01T02:14:57.433Z,13.60
2022-09-01T02:17:24.714Z,13.60
2022-09-01T02:19:51.954Z,13.60
2022-09-01T02:22:19.117Z,13.50
2022-09-01T02:24:46.486Z,13.50
2022-09-01T02:27:13.828Z,13.50
2022-09-01T02:29:43.152Z,13.30
2022-09-01T02:32:10.840Z,13.20
2022-09-01T02:34:38.038Z,13.20
2022-09-01T02:37:05.347Z,13.20
2022-09-01T02:39:32.656Z,13.20
2022-09-01T02:42:00.436Z,13.20
2022-09-01T02:44:29.640Z,13.20
2022-09-01T02:46:57.645Z,13.10
2022-09-01T02:49:26.002Z,13.00
2022-09-01T02:51:55.587Z,12.90
2022-09-01T02:54:23.487Z,12.90
2022-09-01T03:01:01.078Z,12.80
2022-09-01T03:03:30.118Z,12.80
2022-09-01T03:06:51.022Z,12.80
2022-09-01T03:09:19.482Z,12.80
2022-09-01T03:11:50.724Z,12.80
2022-09-01T03:14:20.206Z,12.80
2022-09-01T03:16:47.833Z,12.80
2022-09-01T03:19:15.477Z,13.10
2022-09-01T03:30:03.023Z,12.90
2022-09-01T03:32:30.208Z,12.90
2022-09-01T03:34:57.360Z,12.90
2022-09-01T03:37:24.501Z,12.80
2022-09-01T03:44:03.949Z,12.90
2022-09-01T03:46:35.743Z,13.00
2022-09-01T03:49:04.846Z,13.00
2022-09-01T03:55:46.933Z,13.00
2022-09-01T03:58:19.019Z,13.00
2022-09-01T04:00:54.974Z,13.00
2022-09-01T04:03:28.433Z,13.00
2022-09-01T04:09:56.534Z,12.90
2022-09-01T04:16:31.486Z,12.80
2022-09-01T04:18:58.759Z,13.20
2022-09-01T04:21:25.941Z,12.80
2022-09-01T04:23:53.124Z,12.90
2022-09-01T04:34:58.299Z,12.90
2022-09-01T04:37:25.471Z,13.00
2022-09-01T04:39:57.083Z,13.00
2022-09-01T04:42:28.524Z,13.00
2022-09-01T04:44:56.518Z,13.00
2022-09-01T04:47:24.197Z,13.00
2022-09-01T04:49:51.493Z,13.10
2022-09-01T04:56:10.027Z,13.00
2022-09-01T05:02:45.971Z,12.90
2022-09-01T05:05:51.200Z,13.20
2022-09-01T05:08:23.942Z,13.20
2022-09-01T05:15:01.567Z,13.20
2022-09-01T05:22:18.303Z,13.20
2022-09-01T05:24:45.578Z,13.20
2022-09-01T05:27:12.797Z,13.20
2022-09-01T05:29:40.764Z,13.30
2022-09-01T05:32:08.092Z,13.10
2022-09-01T05:34:35.550Z,13.20
2022-09-01T05:37:02.984Z,13.20
2022-09-01T05:43:40.033Z,13.20
2022-09-01T05:46:08.510Z,13.20
2022-09-01T05:48:36.208Z,13.20
2022-09-01T05:55:13.020Z,13.20
2022-09-01T05:57:53.526Z,13.10
2022-09-01T06:00:20.927Z,13.00
2022-09-01T06:07:07.794Z,13.10
2022-09-01T06:09:47.454Z,13.20
2022-09-01T06:12:18.489Z,13.30
2022-09-01T06:14:52.957Z,13.20
2022-09-01T06:17:23.616Z,13.40
2022-09-01T06:19:56.301Z,13.40
2022-09-01T06:22:31.005Z,13.40
2022-09-01T06:25:02.278Z,13.40
2022-09-01T06:27:35.332Z,13.40
2022-09-01T06:30:02.619Z,13.50
2022-09-01T06:32:33.894Z,13.40
2022-09-01T06:35:05.324Z,13.50
2022-09-01T06:37:35.556Z,13.60
2022-09-01T06:40:03.270Z,13.60
2022-09-01T06:42:51.356Z,13.60
2022-09-01T06:45:23.260Z,13.60
2022-09-01T06:47:51.496Z,13.70
2022-09-01T07:00:04.443Z,13.80
2022-09-01T07:02:31.801Z,13.70
2022-09-01T07:09:47.619Z,13.80
2022-09-01T07:19:00.433Z,14.10
2022-09-01T07:24:19.188Z,14.30
2022-09-01T07:30:49.263Z,14.40
2022-09-01T07:43:15.914Z,14.40
2022-09-01T07:45:57.591Z,14.30
2022-09-01T07:55:16.673Z,14.40
2022-09-01T08:01:43.779Z,14.50
2022-09-01T08:04:11.118Z,14.60
2022-09-01T08:06:41.511Z,13.40
2022-09-01T08:09:11.860Z,14.70
2022-09-01T08:16:06.730Z,14.70
2022-09-01T08:18:47.980Z,14.70
2022-09-01T08:25:25.468Z,14.80
2022-09-01T08:27:59.754Z,14.80
2022-09-01T08:30:27.592Z,14.90
2022-09-01T08:32:55.033Z,14.90
2022-09-01T08:35:22.272Z,14.90
2022-09-01T08:37:49.588Z,14.90
2022-09-01T08:49:24.661Z,15.10
2022-09-01T08:52:08.240Z,15.20
2022-09-01T08:54:46.837Z,15.20
2022-09-01T08:57:25.061Z,15.20
2022-09-01T08:59:53.588Z,15.30
2022-09-01T09:02:52.125Z,15.30
2022-09-01T09:05:41.485Z,15.40
2022-09-01T09:08:46.392Z,15.40
2022-09-01T09:11:34.273Z,15.40
2022-09-01T09:14:19.587Z,15.50
2022-09-01T09:16:55.134Z,15.50
2022-09-01T09:23:39.587Z,15.50
2022-09-01T09:30:27.306Z,15.60
2022-09-01T09:35:54.143Z,15.80
2022-09-01T09:38:25.297Z,16.10
2022-09-01T09:41:19.918Z,16.00
2022-09-01T09:44:00.358Z,16.00
2022-09-01T09:46:44.888Z,16.10
2022-09-01T09:49:36.334Z,16.20
2022-09-01T09:52:10.735Z,16.30
2022-09-01T09:55:04.953Z,16.30
2022-09-01T09:57:39.821Z,16.60
2022-09-01T10:00:15.746Z,16.30
2022-09-01T10:02:45.702Z,16.30
2022-09-01T10:09:22.313Z,16.50
2022-09-01T10:11:58.496Z,16.60
2022-09-01T10:14:52.195Z,16.60
2022-09-01T10:17:44.604Z,16.60
2022-09-01T11:06:13.507Z,17.70
2022-09-01T11:08:50.976Z,17.70
2022-09-01T11:12:05.693Z,17.60
2022-09-01T11:14:46.648Z,17.60
2022-09-01T11:17:33.389Z,17.60
2022-09-01T11:20:30.068Z,17.60
2022-09-01T11:31:43.494Z,17.60
2022-09-01T11:38:17.888Z,17.90
2022-09-01T11:40:57.334Z,18.10
2022-09-01T11:43:27.405Z,18.00
2022-09-01T11:50:25.915Z,18.40
2022-09-01T11:53:04.490Z,20.20
2022-09-01T12:02:02.319Z,23.10
2022-09-01T12:04:35.766Z,23.00
2022-09-01T12:11:18.805Z,22.80
2022-09-01T12:14:08.949Z,23.20
2022-09-01T12:16:42.531Z,23.80
2022-09-01T12:19:25.131Z,23.20
2022-09-01T12:26:14.805Z,23.20
2022-09-01T12:28:42.858Z,22.50
2022-09-01T12:31:19.019Z,21.80
2022-09-01T12:33:47.850Z,21.50
2022-09-01T12:50:33.946Z,20.20
2022-09-01T12:58:25.261Z,19.90
2022-09-01T13:01:15.285Z,20.40
2022-09-01T13:04:26.866Z,20.90
2022-09-01T13:07:00.985Z,21.30
2022-09-01T13:13:38.029Z,21.50
2022-09-01T13:16:06.970Z,21.40
2022-09-01T13:19:10.427Z,21.20
2022-09-01T13:25:31.470Z,21.10
2022-09-01T13:27:58.718Z,21.50
2022-09-01T13:34:25.768Z,20.60
2022-09-01T13:36:53.127Z,19.70
2022-09-01T13:39:21.099Z,19.40
2022-09-01T13:41:49.372Z,19.30
2022-09-01T13:44:17.717Z,19.50
2022-09-01T13:49:44.976Z,19.10
2022-09-01T13:52:23.213Z,19.00
2022-09-01T13:54:50.419Z,19.00
2022-09-01T13:57:17.636Z,18.80
2022-09-01T13:59:45.042Z,18.80
2022-09-01T14:02:12.328Z,18.70
2022-09-01T14:04:39.723Z,18.70
2022-09-01T14:07:07.196Z,18.50
2022-09-01T14:13:44.191Z,18.60
2022-09-01T14:26:15.704Z,19.40
2022-09-01T14:28:44.842Z,19.50
2022-09-01T14:31:18.398Z,19.40
2022-09-01T14:33:45.920Z,19.50
2022-09-01T14:40:24.180Z,19.90
2022-09-01T14:42:53.050Z,20.40
2022-09-01T14:49:22.460Z,19.80
2022-09-01T14:54:41.997Z,19.20
2022-09-01T15:05:18.949Z,20.70
2022-09-01T15:07:46.706Z,21.00
2022-09-01T15:14:13.800Z,21.40
2022-09-01T15:16:41.774Z,21.50
2022-09-01T15:19:13.285Z,21.00
2022-09-01T15:21:43.953Z,20.60
2022-09-01T15:28:02.123Z,19.60
2022-09-01T15:30:29.411Z,19.40
2022-09-01T15:42:55.459Z,18.70
2022-09-01T15:45:25.630Z,18.70
2022-09-01T15:47:53.898Z,18.40
2022-09-01T15:50:27.767Z,18.20
2022-09-01T15:53:04.021Z,17.90
2022-09-01T16:39:17.669Z,16.70
2022-09-01T16:42:10.243Z,16.60
